DAL2457 KLAX-KPDX
Flight info
| Callsign | DAL2457 |
|---|---|
| Flight time | 2h 1m |
| Altitude | 38000 |
| Route | LADYJ4 CSTRO SHIMR LMT MOXEE TMBRS4 |
| Aircraft | A319/M-SDE3FGHIRWY/LB1 |
Departure
| Time | 2026-04-23 22:46 |
|---|---|
| Airport | Los Angeles International Airport (KLAX) |
Arrival
| Time | 2026-04-24 00:47 |
|---|---|
| Airport | Portland International Airport (KPDX) |
| Time | Latitude | Longitude | Altitude | Speed | Heading |
|---|---|---|---|---|---|
| 2026-04-23 22:10 | 33.94637 | -118.40646 | 122 ft | 0 kts | 263° |
| 2026-04-23 22:39 | 33.94638 | -118.40643 | 122 ft | 2 kts | 263° |
| 2026-04-23 22:39 | 33.94640 | -118.40626 | 122 ft | 2 kts | 263° |
| 2026-04-23 22:40 | 33.94638 | -118.40608 | 122 ft | 2 kts | 295° |
| 2026-04-23 22:40 | 33.94629 | -118.40593 | 123 ft | 2 kts | 321° |
| 2026-04-23 22:40 | 33.94609 | -118.40583 | 122 ft | 1 kts | 357° |
| 2026-04-23 22:41 | 33.94606 | -118.40583 | 122 ft | 0 kts | 354° |
| 2026-04-23 22:42 | 33.94613 | -118.40584 | 122 ft | 1 kts | 354° |
| 2026-04-23 22:43 | 33.94626 | -118.40585 | 123 ft | 2 kts | 354° |
| 2026-04-23 22:43 | 33.94633 | -118.40586 | 123 ft | 4 kts | 354° |
| 2026-04-23 22:43 | 33.94701 | -118.40596 | 123 ft | 15 kts | 353° |
| 2026-04-23 22:43 | 33.94788 | -118.40543 | 123 ft | 16 kts | 75° |
| 2026-04-23 22:44 | 33.94817 | -118.40404 | 122 ft | 17 kts | 76° |
| 2026-04-23 22:44 | 33.94837 | -118.40260 | 121 ft | 17 kts | 82° |
| 2026-04-23 22:44 | 33.94862 | -118.40113 | 120 ft | 17 kts | 49° |
| 2026-04-23 22:44 | 33.94938 | -118.40002 | 119 ft | 17 kts | 72° |
| 2026-04-23 22:45 | 33.95009 | -118.39928 | 118 ft | 15 kts | 352° |
| 2026-04-23 22:45 | 33.95042 | -118.39979 | 118 ft | 0 kts | 263° |
| 2026-04-23 22:45 | 33.95042 | -118.39980 | 118 ft | 0 kts | 263° |
| 2026-04-23 22:45 | 33.95042 | -118.39984 | 118 ft | 2 kts | 263° |
| 2026-04-23 22:46 | 33.95004 | -118.40294 | 121 ft | 75 kts | 263° |
| 2026-04-23 22:46 | 33.94901 | -118.41202 | 125 ft | 140 kts | 264° |
| 2026-04-23 22:46 | 33.94756 | -118.42492 | 419 ft | 165 kts | 262° |
| 2026-04-23 22:46 | 33.94601 | -118.43861 | 1143 ft | 168 kts | 262° |
| 2026-04-23 22:47 | 33.94466 | -118.45221 | 1924 ft | 166 kts | 263° |
| 2026-04-23 22:47 | 33.94349 | -118.46645 | 2470 ft | 180 kts | 267° |
| 2026-04-23 22:47 | 33.94296 | -118.48219 | 2941 ft | 196 kts | 269° |
| 2026-04-23 22:47 | 33.94253 | -118.49911 | 3401 ft | 213 kts | 270° |
| 2026-04-23 22:48 | 33.94154 | -118.51770 | 3802 ft | 236 kts | 266° |
| 2026-04-23 22:48 | 33.94000 | -118.53831 | 4319 ft | 256 kts | 266° |
| 2026-04-23 22:48 | 33.93827 | -118.56022 | 4938 ft | 271 kts | 266° |
| 2026-04-23 22:48 | 33.93646 | -118.58284 | 5781 ft | 276 kts | 266° |
| 2026-04-23 22:49 | 33.93478 | -118.60569 | 6665 ft | 278 kts | 270° |
| 2026-04-23 22:49 | 33.93811 | -118.62800 | 7359 ft | 275 kts | 297° |
| 2026-04-23 22:49 | 33.94983 | -118.64602 | 7798 ft | 274 kts | 322° |
| 2026-04-23 22:49 | 33.96579 | -118.65829 | 7949 ft | 274 kts | 329° |
| 2026-04-23 22:50 | 33.98236 | -118.66969 | 7957 ft | 272 kts | 334° |
| 2026-04-23 22:50 | 34.00034 | -118.67609 | 7949 ft | 274 kts | 352° |
| 2026-04-23 22:50 | 34.01953 | -118.67638 | 7965 ft | 276 kts | 1° |
| 2026-04-23 22:50 | 34.03898 | -118.67493 | 8063 ft | 281 kts | 2° |
| 2026-04-23 22:51 | 34.05850 | -118.67340 | 8776 ft | 286 kts | 1° |
| 2026-04-23 22:51 | 34.07809 | -118.67120 | 9728 ft | 286 kts | 5° |
| 2026-04-23 22:51 | 34.09795 | -118.66718 | 10532 ft | 293 kts | 7° |
| 2026-04-23 22:51 | 34.11875 | -118.66231 | 11009 ft | 310 kts | 7° |
| 2026-04-23 22:52 | 34.14040 | -118.65716 | 11492 ft | 325 kts | 7° |
| 2026-04-23 22:52 | 34.16290 | -118.65176 | 12269 ft | 329 kts | 6° |
| 2026-04-23 22:52 | 34.18523 | -118.64639 | 13090 ft | 331 kts | 6° |
| 2026-04-23 22:52 | 34.20790 | -118.64100 | 13845 ft | 335 kts | 5° |
| 2026-04-23 22:53 | 34.23089 | -118.63640 | 14564 ft | 336 kts | 359° |
| 2026-04-23 22:53 | 34.25399 | -118.63591 | 15270 ft | 335 kts | 351° |
| 2026-04-23 22:53 | 34.27703 | -118.63956 | 15948 ft | 335 kts | 344° |
| 2026-04-23 22:53 | 34.30005 | -118.64477 | 16615 ft | 339 kts | 343° |
| 2026-04-23 22:54 | 34.32342 | -118.65028 | 17280 ft | 342 kts | 343° |
| 2026-04-23 22:54 | 34.34679 | -118.65575 | 17936 ft | 346 kts | 343° |
| 2026-04-23 22:54 | 34.37058 | -118.66125 | 18586 ft | 349 kts | 343° |
| 2026-04-23 22:54 | 34.39443 | -118.66675 | 19216 ft | 353 kts | 343° |
| 2026-04-23 22:55 | 34.41869 | -118.67230 | 19870 ft | 356 kts | 343° |
| 2026-04-23 22:55 | 34.44330 | -118.67764 | 20502 ft | 360 kts | 345° |
| 2026-04-23 22:55 | 34.46809 | -118.68246 | 21102 ft | 364 kts | 345° |
| 2026-04-23 22:55 | 34.49294 | -118.68720 | 21702 ft | 367 kts | 345° |
| 2026-04-23 22:56 | 34.51825 | -118.69206 | 22263 ft | 370 kts | 345° |
| 2026-04-23 22:56 | 34.54379 | -118.69699 | 22818 ft | 373 kts | 345° |
| 2026-04-23 22:56 | 34.56934 | -118.70197 | 23343 ft | 376 kts | 345° |
| 2026-04-23 22:56 | 34.59524 | -118.70702 | 23873 ft | 379 kts | 345° |
| 2026-04-23 22:57 | 34.62136 | -118.71213 | 24395 ft | 382 kts | 345° |
| 2026-04-23 22:57 | 34.64793 | -118.71732 | 24901 ft | 385 kts | 345° |
| 2026-04-23 22:57 | 34.67430 | -118.72250 | 25385 ft | 387 kts | 345° |
| 2026-04-23 22:57 | 34.70075 | -118.72877 | 25855 ft | 387 kts | 339° |
| 2026-04-23 22:58 | 34.72613 | -118.73871 | 26295 ft | 385 kts | 333° |
| 2026-04-23 22:58 | 34.75048 | -118.75242 | 26738 ft | 384 kts | 326° |
| 2026-04-23 22:58 | 34.77393 | -118.76814 | 27181 ft | 385 kts | 325° |
| 2026-04-23 22:58 | 34.79720 | -118.78412 | 27594 ft | 388 kts | 324° |
| 2026-04-23 22:59 | 34.82054 | -118.80025 | 27989 ft | 391 kts | 325° |
| 2026-04-23 22:59 | 34.84443 | -118.81673 | 28389 ft | 394 kts | 325° |
| 2026-04-23 22:59 | 34.86835 | -118.83322 | 28766 ft | 397 kts | 325° |
| 2026-04-23 22:59 | 34.89232 | -118.84973 | 29142 ft | 399 kts | 325° |
| 2026-04-23 23:00 | 34.91671 | -118.86653 | 29522 ft | 402 kts | 324° |
| 2026-04-23 23:00 | 34.94092 | -118.88321 | 29887 ft | 404 kts | 324° |
| 2026-04-23 23:00 | 34.96541 | -118.90010 | 30230 ft | 407 kts | 324° |
| 2026-04-23 23:00 | 34.99012 | -118.91712 | 30579 ft | 409 kts | 324° |
| 2026-04-23 23:01 | 35.01507 | -118.93434 | 30923 ft | 411 kts | 324° |
| 2026-04-23 23:01 | 35.03972 | -118.95136 | 31264 ft | 413 kts | 324° |
| 2026-04-23 23:01 | 35.06495 | -118.96878 | 31653 ft | 413 kts | 324° |
| 2026-04-23 23:01 | 35.08983 | -118.98597 | 32105 ft | 412 kts | 324° |
| 2026-04-23 23:02 | 35.11484 | -119.00326 | 32517 ft | 412 kts | 323° |
| 2026-04-23 23:02 | 35.14018 | -119.02082 | 32928 ft | 411 kts | 323° |
| 2026-04-23 23:02 | 35.16482 | -119.03787 | 33343 ft | 410 kts | 323° |
| 2026-04-23 23:02 | 35.18959 | -119.05506 | 33751 ft | 408 kts | 323° |
| 2026-04-23 23:03 | 35.21441 | -119.07230 | 34138 ft | 407 kts | 323° |
| 2026-04-23 23:03 | 35.23895 | -119.08937 | 34501 ft | 406 kts | 323° |
| 2026-04-23 23:03 | 35.26341 | -119.10637 | 34838 ft | 405 kts | 322° |
| 2026-04-23 23:03 | 35.28771 | -119.12328 | 35156 ft | 404 kts | 322° |
| 2026-04-23 23:04 | 35.31219 | -119.14036 | 35470 ft | 403 kts | 322° |
| 2026-04-23 23:04 | 35.33655 | -119.15733 | 35752 ft | 403 kts | 322° |
| 2026-04-23 23:04 | 35.36065 | -119.17415 | 36048 ft | 402 kts | 322° |
| 2026-04-23 23:04 | 35.38512 | -119.19122 | 36348 ft | 402 kts | 322° |
| 2026-04-23 23:05 | 35.40985 | -119.20744 | 36597 ft | 406 kts | 325° |
| 2026-04-23 23:05 | 35.43543 | -119.22208 | 36844 ft | 410 kts | 328° |
| 2026-04-23 23:05 | 35.46194 | -119.23514 | 37090 ft | 414 kts | 331° |
| 2026-04-23 23:05 | 35.48932 | -119.24648 | 37315 ft | 418 kts | 334° |
| 2026-04-23 23:06 | 35.51749 | -119.25603 | 37572 ft | 421 kts | 337° |
| 2026-04-23 23:06 | 35.54617 | -119.26473 | 37804 ft | 422 kts | 337° |
| 2026-04-23 23:06 | 35.57449 | -119.27316 | 37987 ft | 423 kts | 338° |
| 2026-04-23 23:07 | 35.63181 | -119.29024 | 38042 ft | 426 kts | 338° |
| 2026-04-23 23:07 | 35.68919 | -119.30734 | 38033 ft | 424 kts | 338° |
| 2026-04-23 23:08 | 35.74700 | -119.32468 | 38038 ft | 425 kts | 338° |
| 2026-04-23 23:08 | 35.80419 | -119.34186 | 38025 ft | 426 kts | 338° |
| 2026-04-23 23:09 | 35.86154 | -119.35911 | 38032 ft | 424 kts | 338° |
| 2026-04-23 23:09 | 35.91875 | -119.37633 | 38024 ft | 425 kts | 337° |
| 2026-04-23 23:10 | 35.97638 | -119.39373 | 38021 ft | 423 kts | 338° |
| 2026-04-23 23:10 | 36.03327 | -119.41093 | 38011 ft | 423 kts | 337° |
| 2026-04-23 23:11 | 36.09050 | -119.42825 | 38011 ft | 423 kts | 338° |
| 2026-04-23 23:11 | 36.14788 | -119.44566 | 38021 ft | 424 kts | 337° |
| 2026-04-23 23:12 | 36.20501 | -119.46300 | 38034 ft | 424 kts | 338° |
| 2026-04-23 23:12 | 36.26220 | -119.48038 | 38033 ft | 423 kts | 338° |
| 2026-04-23 23:13 | 36.31947 | -119.49783 | 38037 ft | 423 kts | 338° |
| 2026-04-23 23:13 | 36.37639 | -119.51519 | 38040 ft | 423 kts | 338° |
| 2026-04-23 23:14 | 36.43379 | -119.53271 | 38039 ft | 423 kts | 338° |
| 2026-04-23 23:14 | 36.49056 | -119.55007 | 38035 ft | 422 kts | 337° |
| 2026-04-23 23:15 | 36.54748 | -119.56751 | 38034 ft | 421 kts | 337° |
| 2026-04-23 23:15 | 36.60432 | -119.58495 | 38028 ft | 421 kts | 338° |
| 2026-04-23 23:16 | 36.66122 | -119.60246 | 38035 ft | 421 kts | 337° |
| 2026-04-23 23:16 | 36.71796 | -119.61992 | 38036 ft | 421 kts | 338° |
| 2026-04-23 23:17 | 36.77472 | -119.63742 | 38040 ft | 421 kts | 337° |
| 2026-04-23 23:17 | 36.83198 | -119.65507 | 38045 ft | 419 kts | 337° |
| 2026-04-23 23:18 | 36.88839 | -119.67252 | 38042 ft | 420 kts | 337° |
| 2026-04-23 23:18 | 36.94537 | -119.69017 | 38044 ft | 420 kts | 337° |
| 2026-04-23 23:19 | 37.00176 | -119.70766 | 38036 ft | 418 kts | 337° |
| 2026-04-23 23:19 | 37.05828 | -119.72523 | 38040 ft | 419 kts | 337° |
| 2026-04-23 23:20 | 37.11519 | -119.74294 | 38039 ft | 419 kts | 337° |
| 2026-04-23 23:20 | 37.17166 | -119.76053 | 38038 ft | 419 kts | 337° |
| 2026-04-23 23:21 | 37.22848 | -119.77825 | 38042 ft | 418 kts | 337° |
| 2026-04-23 23:21 | 37.28445 | -119.79574 | 38047 ft | 417 kts | 337° |
| 2026-04-23 23:22 | 37.34075 | -119.81338 | 38058 ft | 416 kts | 337° |
| 2026-04-23 23:22 | 37.39700 | -119.83101 | 38066 ft | 417 kts | 337° |
| 2026-04-23 23:23 | 37.45292 | -119.84857 | 38076 ft | 416 kts | 337° |
| 2026-04-23 23:23 | 37.50899 | -119.86619 | 38081 ft | 416 kts | 338° |
| 2026-04-23 23:24 | 37.56513 | -119.88389 | 38087 ft | 415 kts | 338° |
| 2026-04-23 23:24 | 37.62118 | -119.90157 | 38087 ft | 415 kts | 338° |
| 2026-04-23 23:25 | 37.67703 | -119.91921 | 38087 ft | 414 kts | 338° |
| 2026-04-23 23:25 | 37.73290 | -119.93688 | 38089 ft | 414 kts | 338° |
| 2026-04-23 23:26 | 37.78872 | -119.95457 | 38090 ft | 413 kts | 338° |
| 2026-04-23 23:26 | 37.84452 | -119.97230 | 38096 ft | 414 kts | 338° |
| 2026-04-23 23:27 | 37.90036 | -119.99004 | 38095 ft | 413 kts | 338° |
| 2026-04-23 23:27 | 37.95628 | -120.00786 | 38098 ft | 413 kts | 338° |
| 2026-04-23 23:28 | 38.01167 | -120.02551 | 38098 ft | 412 kts | 338° |
| 2026-04-23 23:28 | 38.06726 | -120.04328 | 38096 ft | 412 kts | 338° |
| 2026-04-23 23:29 | 38.12317 | -120.06118 | 38101 ft | 412 kts | 338° |
| 2026-04-23 23:29 | 38.17897 | -120.07906 | 38102 ft | 413 kts | 338° |
| 2026-04-23 23:30 | 38.23463 | -120.09724 | 38103 ft | 411 kts | 336° |
| 2026-04-23 23:30 | 38.28899 | -120.11819 | 38109 ft | 410 kts | 335° |
| 2026-04-23 23:31 | 38.34363 | -120.13971 | 38112 ft | 410 kts | 335° |
| 2026-04-23 23:31 | 38.39793 | -120.16110 | 38114 ft | 410 kts | 336° |
| 2026-04-23 23:32 | 38.45235 | -120.18256 | 38111 ft | 409 kts | 336° |
| 2026-04-23 23:32 | 38.50663 | -120.20400 | 38113 ft | 410 kts | 336° |
| 2026-04-23 23:33 | 38.56133 | -120.22561 | 38118 ft | 411 kts | 336° |
| 2026-04-23 23:33 | 38.61577 | -120.24716 | 38120 ft | 411 kts | 336° |
| 2026-04-23 23:34 | 38.67019 | -120.26874 | 38118 ft | 411 kts | 336° |
| 2026-04-23 23:34 | 38.72474 | -120.29040 | 38117 ft | 410 kts | 336° |
| 2026-04-23 23:35 | 38.77925 | -120.31210 | 38121 ft | 410 kts | 336° |
| 2026-04-23 23:35 | 38.83359 | -120.33375 | 38119 ft | 409 kts | 336° |
| 2026-04-23 23:36 | 38.88789 | -120.35541 | 38123 ft | 409 kts | 336° |
| 2026-04-23 23:36 | 38.94196 | -120.37704 | 38125 ft | 409 kts | 336° |
| 2026-04-23 23:37 | 38.99626 | -120.39877 | 38113 ft | 410 kts | 336° |
| 2026-04-23 23:37 | 39.05076 | -120.42065 | 38113 ft | 410 kts | 336° |
| 2026-04-23 23:38 | 39.10515 | -120.44251 | 38118 ft | 410 kts | 336° |
| 2026-04-23 23:38 | 39.15941 | -120.46432 | 38116 ft | 409 kts | 336° |
| 2026-04-23 23:39 | 39.21375 | -120.48623 | 38114 ft | 409 kts | 336° |
| 2026-04-23 23:39 | 39.26763 | -120.50797 | 38124 ft | 408 kts | 336° |
| 2026-04-23 23:40 | 39.32197 | -120.52994 | 38128 ft | 409 kts | 336° |
| 2026-04-23 23:40 | 39.37614 | -120.55188 | 38122 ft | 409 kts | 336° |
| 2026-04-23 23:41 | 39.43048 | -120.57391 | 38119 ft | 410 kts | 336° |
| 2026-04-23 23:41 | 39.48487 | -120.59601 | 38112 ft | 409 kts | 337° |
| 2026-04-23 23:42 | 39.53902 | -120.61805 | 38108 ft | 409 kts | 336° |
| 2026-04-23 23:42 | 39.59326 | -120.64016 | 38104 ft | 409 kts | 337° |
| 2026-04-23 23:43 | 39.64719 | -120.66219 | 38106 ft | 408 kts | 336° |
| 2026-04-23 23:43 | 39.70126 | -120.68430 | 38105 ft | 408 kts | 336° |
| 2026-04-23 23:44 | 39.75555 | -120.70654 | 38105 ft | 408 kts | 336° |
| 2026-04-23 23:44 | 39.80931 | -120.72858 | 38100 ft | 408 kts | 336° |
| 2026-04-23 23:45 | 39.86354 | -120.75088 | 38104 ft | 408 kts | 336° |
| 2026-04-23 23:45 | 39.91777 | -120.77321 | 38101 ft | 408 kts | 336° |
| 2026-04-23 23:46 | 39.97172 | -120.79546 | 38104 ft | 407 kts | 336° |
| 2026-04-23 23:46 | 40.02533 | -120.81761 | 38100 ft | 407 kts | 336° |
| 2026-04-23 23:47 | 40.07949 | -120.84001 | 38098 ft | 408 kts | 336° |
| 2026-04-23 23:47 | 40.13405 | -120.86261 | 38096 ft | 408 kts | 336° |
| 2026-04-23 23:48 | 40.18794 | -120.88500 | 38105 ft | 408 kts | 336° |
| 2026-04-23 23:48 | 40.24217 | -120.90755 | 38093 ft | 408 kts | 336° |
| 2026-04-23 23:49 | 40.32310 | -120.94126 | 38098 ft | 408 kts | 337° |
| 2026-04-23 23:49 | 40.37734 | -120.96391 | 38099 ft | 409 kts | 337° |
| 2026-04-23 23:50 | 40.43139 | -120.98651 | 38096 ft | 408 kts | 337° |
| 2026-04-23 23:50 | 40.48554 | -121.00920 | 38106 ft | 409 kts | 337° |
| 2026-04-23 23:51 | 40.53953 | -121.03185 | 38090 ft | 409 kts | 337° |
| 2026-04-23 23:51 | 40.59382 | -121.05469 | 38104 ft | 408 kts | 337° |
| 2026-04-23 23:52 | 40.64755 | -121.07731 | 38093 ft | 408 kts | 337° |
| 2026-04-23 23:52 | 40.70165 | -121.10013 | 38095 ft | 408 kts | 337° |
| 2026-04-23 23:53 | 40.75579 | -121.12300 | 38108 ft | 408 kts | 337° |
| 2026-04-23 23:53 | 40.80980 | -121.14587 | 38112 ft | 409 kts | 337° |
| 2026-04-23 23:54 | 40.86356 | -121.16866 | 38105 ft | 409 kts | 337° |
| 2026-04-23 23:54 | 40.91774 | -121.19167 | 38084 ft | 409 kts | 337° |
| 2026-04-23 23:55 | 40.97181 | -121.21469 | 38122 ft | 409 kts | 337° |
| 2026-04-23 23:55 | 41.02594 | -121.23776 | 38100 ft | 409 kts | 337° |
| 2026-04-23 23:56 | 41.08012 | -121.26090 | 38104 ft | 409 kts | 337° |
| 2026-04-23 23:56 | 41.13425 | -121.28405 | 38110 ft | 409 kts | 337° |
| 2026-04-23 23:57 | 41.18826 | -121.30719 | 38112 ft | 410 kts | 337° |
| 2026-04-23 23:57 | 41.24242 | -121.33043 | 38113 ft | 410 kts | 337° |
| 2026-04-23 23:58 | 41.29633 | -121.35360 | 38112 ft | 410 kts | 337° |
| 2026-04-23 23:58 | 41.35057 | -121.37695 | 38107 ft | 410 kts | 338° |
| 2026-04-23 23:59 | 41.40489 | -121.40041 | 38104 ft | 410 kts | 338° |
| 2026-04-23 23:59 | 41.45898 | -121.42380 | 38113 ft | 411 kts | 338° |
| 2026-04-24 00:00 | 41.51295 | -121.44715 | 38109 ft | 411 kts | 338° |
| 2026-04-24 00:00 | 41.56719 | -121.47068 | 38113 ft | 411 kts | 338° |
| 2026-04-24 00:01 | 41.62155 | -121.49429 | 38107 ft | 412 kts | 338° |
| 2026-04-24 00:01 | 41.67592 | -121.51794 | 38112 ft | 412 kts | 338° |
| 2026-04-24 00:02 | 41.73021 | -121.54158 | 38110 ft | 412 kts | 338° |
| 2026-04-24 00:02 | 41.78481 | -121.56546 | 38107 ft | 411 kts | 338° |
| 2026-04-24 00:03 | 41.83899 | -121.58916 | 38106 ft | 412 kts | 338° |
| 2026-04-24 00:03 | 41.89335 | -121.61298 | 38107 ft | 411 kts | 338° |
| 2026-04-24 00:04 | 41.94756 | -121.63682 | 38109 ft | 412 kts | 339° |
| 2026-04-24 00:04 | 42.00195 | -121.66078 | 38117 ft | 412 kts | 338° |
| 2026-04-24 00:05 | 42.05632 | -121.68472 | 38113 ft | 412 kts | 338° |
| 2026-04-24 00:05 | 42.11085 | -121.70882 | 38128 ft | 412 kts | 338° |
| 2026-04-24 00:06 | 42.16515 | -121.73341 | 38123 ft | 412 kts | 336° |
| 2026-04-24 00:06 | 42.21888 | -121.76000 | 38136 ft | 412 kts | 336° |
| 2026-04-24 00:07 | 42.27229 | -121.78667 | 38126 ft | 411 kts | 337° |
| 2026-04-24 00:07 | 42.32599 | -121.81345 | 38128 ft | 411 kts | 337° |
| 2026-04-24 00:08 | 42.37938 | -121.84016 | 38126 ft | 411 kts | 337° |
| 2026-04-24 00:08 | 42.43288 | -121.86695 | 38126 ft | 411 kts | 337° |
| 2026-04-24 00:09 | 42.48659 | -121.89387 | 38114 ft | 411 kts | 338° |
| 2026-04-24 00:09 | 42.54037 | -121.92084 | 38124 ft | 412 kts | 337° |
| 2026-04-24 00:10 | 42.59397 | -121.94784 | 38124 ft | 412 kts | 338° |
| 2026-04-24 00:10 | 42.64734 | -121.97475 | 38126 ft | 412 kts | 338° |
| 2026-04-24 00:11 | 42.70126 | -122.00200 | 38126 ft | 413 kts | 338° |
| 2026-04-24 00:11 | 42.75497 | -122.02917 | 38121 ft | 413 kts | 338° |
| 2026-04-24 00:12 | 42.80897 | -122.05655 | 38117 ft | 414 kts | 338° |
| 2026-04-24 00:12 | 42.86261 | -122.08379 | 38121 ft | 414 kts | 338° |
| 2026-04-24 00:13 | 42.91670 | -122.11131 | 38117 ft | 414 kts | 338° |
| 2026-04-24 00:13 | 42.97068 | -122.13884 | 38123 ft | 415 kts | 338° |
| 2026-04-24 00:14 | 43.02465 | -122.16640 | 38118 ft | 416 kts | 338° |
| 2026-04-24 00:14 | 43.07872 | -122.19405 | 38148 ft | 415 kts | 338° |
| 2026-04-24 00:15 | 43.13307 | -122.22193 | 38128 ft | 415 kts | 338° |
| 2026-04-24 00:15 | 43.18703 | -122.24966 | 38128 ft | 415 kts | 338° |
| 2026-04-24 00:16 | 43.24065 | -122.27725 | 38127 ft | 414 kts | 339° |
| 2026-04-24 00:16 | 43.29465 | -122.30512 | 38134 ft | 413 kts | 339° |
| 2026-04-24 00:17 | 43.34815 | -122.33274 | 38119 ft | 413 kts | 339° |
| 2026-04-24 00:17 | 43.40193 | -122.36057 | 38121 ft | 413 kts | 339° |
| 2026-04-24 00:18 | 43.45578 | -122.38850 | 38124 ft | 413 kts | 339° |
| 2026-04-24 00:18 | 43.50906 | -122.41618 | 38096 ft | 412 kts | 339° |
| 2026-04-24 00:19 | 43.53608 | -122.43025 | 37848 ft | 411 kts | 339° |
| 2026-04-24 00:19 | 43.56273 | -122.44415 | 37580 ft | 409 kts | 339° |
| 2026-04-24 00:19 | 43.58897 | -122.45785 | 37226 ft | 407 kts | 340° |
| 2026-04-24 00:19 | 43.61531 | -122.47161 | 36797 ft | 403 kts | 340° |
| 2026-04-24 00:20 | 43.64144 | -122.48529 | 36327 ft | 403 kts | 340° |
| 2026-04-24 00:20 | 43.66770 | -122.49903 | 35787 ft | 405 kts | 341° |
| 2026-04-24 00:20 | 43.69410 | -122.51286 | 35192 ft | 408 kts | 341° |
| 2026-04-24 00:20 | 43.72055 | -122.52674 | 34540 ft | 411 kts | 342° |
| 2026-04-24 00:21 | 43.74730 | -122.54071 | 33883 ft | 412 kts | 341° |
| 2026-04-24 00:21 | 43.77378 | -122.55454 | 33249 ft | 412 kts | 341° |
| 2026-04-24 00:21 | 43.80074 | -122.56865 | 32604 ft | 413 kts | 341° |
| 2026-04-24 00:21 | 43.82719 | -122.58254 | 31954 ft | 413 kts | 341° |
| 2026-04-24 00:22 | 43.85401 | -122.59664 | 31294 ft | 413 kts | 341° |
| 2026-04-24 00:22 | 43.88074 | -122.61071 | 30699 ft | 411 kts | 341° |
| 2026-04-24 00:22 | 43.90741 | -122.62478 | 30253 ft | 405 kts | 340° |
| 2026-04-24 00:22 | 43.93320 | -122.63841 | 29822 ft | 399 kts | 340° |
| 2026-04-24 00:23 | 43.95924 | -122.65218 | 29367 ft | 394 kts | 340° |
| 2026-04-24 00:23 | 43.98460 | -122.66562 | 28913 ft | 389 kts | 340° |
| 2026-04-24 00:23 | 44.00956 | -122.67884 | 28487 ft | 384 kts | 340° |
| 2026-04-24 00:23 | 44.03408 | -122.69185 | 28070 ft | 378 kts | 340° |
| 2026-04-24 00:24 | 44.05853 | -122.70482 | 27640 ft | 374 kts | 340° |
| 2026-04-24 00:24 | 44.08270 | -122.71764 | 27202 ft | 369 kts | 340° |
| 2026-04-24 00:24 | 44.10657 | -122.73032 | 26783 ft | 365 kts | 339° |
| 2026-04-24 00:24 | 44.13039 | -122.74179 | 26335 ft | 361 kts | 345° |
| 2026-04-24 00:25 | 44.15488 | -122.74846 | 25904 ft | 358 kts | 353° |
| 2026-04-24 00:25 | 44.17973 | -122.75011 | 25452 ft | 356 kts | 0° |
| 2026-04-24 00:25 | 44.20419 | -122.74829 | 25003 ft | 355 kts | 2° |
| 2026-04-24 00:25 | 44.22874 | -122.74583 | 24587 ft | 351 kts | 2° |
| 2026-04-24 00:26 | 44.25306 | -122.74332 | 24149 ft | 349 kts | 2° |
| 2026-04-24 00:26 | 44.27716 | -122.74086 | 23723 ft | 347 kts | 2° |
| 2026-04-24 00:26 | 44.30116 | -122.73844 | 23296 ft | 345 kts | 2° |
| 2026-04-24 00:26 | 44.32477 | -122.73610 | 22885 ft | 343 kts | 2° |
| 2026-04-24 00:27 | 44.34852 | -122.73374 | 22475 ft | 340 kts | 2° |
| 2026-04-24 00:27 | 44.37218 | -122.73140 | 22063 ft | 338 kts | 2° |
| 2026-04-24 00:27 | 44.39551 | -122.72909 | 21650 ft | 337 kts | 2° |
| 2026-04-24 00:27 | 44.41882 | -122.72678 | 21225 ft | 335 kts | 2° |
| 2026-04-24 00:28 | 44.44176 | -122.72450 | 20823 ft | 334 kts | 2° |
| 2026-04-24 00:28 | 44.46495 | -122.72221 | 20417 ft | 332 kts | 1° |
| 2026-04-24 00:28 | 44.48806 | -122.71993 | 20002 ft | 331 kts | 2° |
| 2026-04-24 00:28 | 44.51094 | -122.71767 | 19597 ft | 330 kts | 1° |
| 2026-04-24 00:29 | 44.53369 | -122.71542 | 19193 ft | 328 kts | 1° |
| 2026-04-24 00:29 | 44.55617 | -122.71320 | 18785 ft | 327 kts | 1° |
| 2026-04-24 00:29 | 44.57886 | -122.71094 | 18392 ft | 324 kts | 1° |
| 2026-04-24 00:29 | 44.60105 | -122.70874 | 18106 ft | 320 kts | 1° |
| 2026-04-24 00:30 | 44.62344 | -122.70650 | 17714 ft | 319 kts | 1° |
| 2026-04-24 00:30 | 44.64543 | -122.70428 | 17331 ft | 317 kts | 1° |
| 2026-04-24 00:30 | 44.66739 | -122.70208 | 16938 ft | 316 kts | 1° |
| 2026-04-24 00:30 | 44.68935 | -122.69987 | 16541 ft | 315 kts | 1° |
| 2026-04-24 00:31 | 44.71102 | -122.69764 | 16142 ft | 315 kts | 2° |
| 2026-04-24 00:31 | 44.73263 | -122.69347 | 15800 ft | 313 kts | 6° |
| 2026-04-24 00:31 | 44.75403 | -122.68839 | 15503 ft | 309 kts | 6° |
| 2026-04-24 00:31 | 44.77511 | -122.68339 | 15226 ft | 314 kts | 6° |
| 2026-04-24 00:32 | 44.79690 | -122.67836 | 14933 ft | 318 kts | 6° |
| 2026-04-24 00:32 | 44.81874 | -122.67339 | 14633 ft | 317 kts | 6° |
| 2026-04-24 00:32 | 44.84039 | -122.66850 | 14339 ft | 316 kts | 5° |
| 2026-04-24 00:32 | 44.86205 | -122.66367 | 14058 ft | 314 kts | 5° |
| 2026-04-24 00:33 | 44.88350 | -122.65890 | 13754 ft | 313 kts | 5° |
| 2026-04-24 00:33 | 44.90484 | -122.65415 | 13468 ft | 311 kts | 5° |
| 2026-04-24 00:33 | 44.92616 | -122.64943 | 13195 ft | 311 kts | 5° |
| 2026-04-24 00:33 | 44.94764 | -122.64468 | 12912 ft | 310 kts | 5° |
| 2026-04-24 00:34 | 44.96886 | -122.63997 | 12625 ft | 309 kts | 5° |
| 2026-04-24 00:34 | 44.99003 | -122.63528 | 12339 ft | 308 kts | 5° |
| 2026-04-24 00:34 | 45.01115 | -122.63060 | 12061 ft | 307 kts | 5° |
| 2026-04-24 00:34 | 45.03215 | -122.62594 | 11763 ft | 306 kts | 6° |
| 2026-04-24 00:35 | 45.05321 | -122.62125 | 11404 ft | 304 kts | 6° |
| 2026-04-24 00:35 | 45.07384 | -122.61665 | 11026 ft | 302 kts | 6° |
| 2026-04-24 00:35 | 45.09479 | -122.61194 | 10629 ft | 301 kts | 7° |
| 2026-04-24 00:35 | 45.11441 | -122.60201 | 10197 ft | 304 kts | 29° |
| 2026-04-24 00:36 | 45.12971 | -122.58181 | 10027 ft | 299 kts | 48° |
| 2026-04-24 00:36 | 45.14211 | -122.55853 | 9904 ft | 287 kts | 50° |
| 2026-04-24 00:36 | 45.15384 | -122.53606 | 9568 ft | 285 kts | 50° |
| 2026-04-24 00:36 | 45.16560 | -122.51369 | 9216 ft | 283 kts | 49° |
| 2026-04-24 00:37 | 45.17728 | -122.49166 | 8877 ft | 282 kts | 49° |
| 2026-04-24 00:37 | 45.18912 | -122.46940 | 8514 ft | 280 kts | 49° |
| 2026-04-24 00:37 | 45.20079 | -122.44750 | 8193 ft | 278 kts | 49° |
| 2026-04-24 00:37 | 45.21238 | -122.42580 | 7863 ft | 277 kts | 50° |
| 2026-04-24 00:38 | 45.22398 | -122.40411 | 7493 ft | 276 kts | 48° |
| 2026-04-24 00:38 | 45.23806 | -122.38622 | 7128 ft | 270 kts | 26° |
| 2026-04-24 00:38 | 45.25542 | -122.37745 | 6809 ft | 265 kts | 11° |
| 2026-04-24 00:38 | 45.27331 | -122.37171 | 6470 ft | 264 kts | 9° |
| 2026-04-24 00:39 | 45.29129 | -122.36613 | 6123 ft | 263 kts | 10° |
| 2026-04-24 00:39 | 45.30904 | -122.36053 | 5788 ft | 262 kts | 11° |
| 2026-04-24 00:39 | 45.32683 | -122.35480 | 5459 ft | 260 kts | 11° |
| 2026-04-24 00:39 | 45.34448 | -122.34901 | 5135 ft | 259 kts | 12° |
| 2026-04-24 00:40 | 45.36194 | -122.34326 | 4780 ft | 258 kts | 12° |
| 2026-04-24 00:40 | 45.37949 | -122.33744 | 4462 ft | 257 kts | 12° |
| 2026-04-24 00:40 | 45.39677 | -122.33170 | 4134 ft | 255 kts | 12° |
| 2026-04-24 00:40 | 45.41389 | -122.32602 | 3809 ft | 254 kts | 12° |
| 2026-04-24 00:41 | 45.43111 | -122.32028 | 3609 ft | 247 kts | 12° |
| 2026-04-24 00:41 | 45.44723 | -122.31490 | 3598 ft | 233 kts | 12° |
| 2026-04-24 00:41 | 45.46270 | -122.31384 | 3573 ft | 217 kts | 344° |
| 2026-04-24 00:41 | 45.47536 | -122.32388 | 3528 ft | 205 kts | 317° |
| 2026-04-24 00:42 | 45.48428 | -122.33907 | 3391 ft | 197 kts | 304° |
| 2026-04-24 00:42 | 45.49139 | -122.35508 | 3305 ft | 183 kts | 302° |
| 2026-04-24 00:42 | 45.49758 | -122.37019 | 3180 ft | 171 kts | 300° |
| 2026-04-24 00:42 | 45.50311 | -122.38422 | 3062 ft | 151 kts | 300° |
| 2026-04-24 00:43 | 45.50783 | -122.39641 | 2941 ft | 136 kts | 300° |
| 2026-04-24 00:43 | 45.51240 | -122.40825 | 2763 ft | 134 kts | 300° |
| 2026-04-24 00:43 | 45.51689 | -122.41989 | 2584 ft | 134 kts | 300° |
| 2026-04-24 00:43 | 45.52132 | -122.43137 | 2407 ft | 133 kts | 300° |
| 2026-04-24 00:44 | 45.52577 | -122.44288 | 2231 ft | 133 kts | 302° |
| 2026-04-24 00:44 | 45.53097 | -122.45367 | 2045 ft | 132 kts | 308° |
| 2026-04-24 00:44 | 45.53667 | -122.46397 | 1860 ft | 132 kts | 310° |
| 2026-04-24 00:44 | 45.54232 | -122.47444 | 1667 ft | 132 kts | 308° |
| 2026-04-24 00:45 | 45.54781 | -122.48467 | 1468 ft | 131 kts | 309° |
| 2026-04-24 00:45 | 45.55346 | -122.49490 | 1259 ft | 131 kts | 309° |
| 2026-04-24 00:45 | 45.55904 | -122.50508 | 1063 ft | 130 kts | 305° |
| 2026-04-24 00:45 | 45.56390 | -122.51600 | 864 ft | 130 kts | 301° |
| 2026-04-24 00:46 | 45.56831 | -122.52723 | 678 ft | 130 kts | 299° |
| 2026-04-24 00:46 | 45.57260 | -122.53849 | 525 ft | 130 kts | 298° |
| 2026-04-24 00:46 | 45.57697 | -122.54977 | 358 ft | 130 kts | 299° |
| 2026-04-24 00:46 | 45.58127 | -122.56099 | 170 ft | 129 kts | 298° |
| 2026-04-24 00:47 | 45.58562 | -122.57226 | 33 ft | 128 kts | 299° |
| 2026-04-24 00:47 | 45.58924 | -122.58164 | 31 ft | 84 kts | 299° |
| 2026-04-24 00:47 | 45.59133 | -122.58717 | 33 ft | 51 kts | 298° |
| 2026-04-24 00:47 | 45.59199 | -122.59088 | 33 ft | 27 kts | 278° |
| 2026-04-24 00:48 | 45.59201 | -122.59335 | 33 ft | 21 kts | 266° |
| 2026-04-24 00:48 | 45.59251 | -122.59519 | 32 ft | 19 kts | 294° |
| 2026-04-24 00:48 | 45.59257 | -122.59620 | 32 ft | 7 kts | 194° |
| 2026-04-24 00:48 | 45.59209 | -122.59642 | 32 ft | 4 kts | 194° |
| 2026-04-24 00:49 | 45.59208 | -122.59643 | 32 ft | 0 kts | 193° |